Time;durP1;ratioP1;P1;durP2;ratioP2;P2;SDS_P1;SDS_P2;PMS_P1;PMS_P2;Temp;Humidity;BMP_temperature;BMP_pressure;BME280_temperature;BME280_humidity;BME280_pressure;Samples;Min_cycle;Max_cycle;Signal;HPM_P1;HPM_P2
2022/03/22 00:01:04;;;;;;;35.13;22.52;;;;;;;12.92;55.52;102954.34;6246277;22;20000;-63
2022/03/22 00:03:30;;;;;;;37.53;21.98;;;;;;;12.95;55.92;102952.69;6246335;22;20074;-62
2022/03/22 00:05:57;;;;;;;36.40;22.52;;;;;;;12.96;56.22;102953.59;6220170;23;20453;-62
2022/03/22 00:08:22;;;;;;;34.92;22.15;;;;;;;12.96;56.21;102954.50;6246650;22;20054;-63
2022/03/22 00:10:48;;;;;;;36.88;22.90;;;;;;;13.00;56.27;102959.06;6246649;22;20004;-63
2022/03/22 00:13:13;;;;;;;38.15;21.48;;;;;;;12.99;55.94;102956.38;6246606;22;20004;-62
2022/03/22 00:15:40;;;;;;;35.10;21.35;;;;;;;13.01;55.95;102955.53;6246774;22;20325;-62
2022/03/22 00:18:06;;;;;;;36.22;22.20;;;;;;;12.99;55.90;102951.94;6246449;22;20008;-62
2022/03/22 00:20:32;;;;;;;35.45;21.15;;;;;;;12.97;56.01;102944.78;6246503;22;20011;-62
2022/03/22 00:22:57;;;;;;;37.78;21.90;;;;;;;12.96;55.96;102950.94;6246502;22;20012;-62
2022/03/22 00:25:24;;;;;;;37.83;21.55;;;;;;;12.95;56.23;102947.38;6246376;22;20005;-62
2022/03/22 00:27:53;;;;;;;31.65;21.52;;;;;;;12.84;55.69;102958.47;6246172;22;20016;-63
2022/03/22 00:30:31;;;;;;;34.95;21.33;;;;;;;12.76;55.39;102960.84;6246530;22;20457;-62
2022/03/22 00:32:58;;;;;;;38.38;21.42;;;;;;;12.57;56.25;102961.03;6246655;22;20463;-62
2022/03/22 00:35:26;;;;;;;30.90;21.15;;;;;;;12.48;56.19;102958.97;6246407;22;20058;-63
2022/03/22 00:37:53;;;;;;;35.38;21.95;;;;;;;12.53;56.61;102963.56;6246193;22;20000;-62
2022/03/22 00:40:20;;;;;;;36.15;21.98;;;;;;;12.48;55.72;102954.56;6246435;22;20046;-62
2022/03/22 00:42:48;;;;;;;34.85;21.85;;;;;;;12.43;56.40;102965.84;6246417;22;20075;-62
2022/03/22 00:45:16;;;;;;;34.17;21.33;;;;;;;12.37;56.86;102969.16;6246324;22;20046;-62
2022/03/22 00:47:45;;;;;;;36.15;21.65;;;;;;;12.36;57.11;102967.34;6244687;23;20384;-62
2022/03/22 00:50:35;;;;;;;34.42;22.35;;;;;;;12.29;57.42;102957.38;6246314;22;20004;-62
2022/03/22 00:53:01;;;;;;;32.17;21.55;;;;;;;12.25;57.61;102956.38;6244817;23;20008;-62
2022/03/22 00:55:27;;;;;;;37.03;21.92;;;;;;;12.23;56.99;102957.13;6246289;22;20007;-63
2022/03/22 00:57:59;;;;;;;39.58;21.80;;;;;;;12.23;57.54;102963.34;6245891;22;20004;-63
2022/03/22 01:00:26;;;;;;;42.47;21.23;;;;;;;12.25;57.40;102963.41;6246333;22;20007;-62
2022/03/22 01:02:56;;;;;;;44.40;20.92;;;;;;;12.23;57.08;102959.78;6246058;22;20361;-63
2022/03/22 01:05:23;;;;;;;32.92;21.05;;;;;;;12.12;56.92;102964.69;6246000;22;20000;-62
2022/03/22 01:07:51;;;;;;;31.92;20.67;;;;;;;12.07;58.20;102968.00;6246226;22;20004;-62
2022/03/22 01:10:19;;;;;;;37.88;21.27;;;;;;;12.00;57.97;102964.22;6246075;22;20000;-62
2022/03/22 01:12:46;;;;;;;38.28;20.58;;;;;;;12.00;58.35;102962.47;6245979;22;20000;-62
2022/03/22 01:15:24;;;;;;;34.33;21.20;;;;;;;11.93;58.20;102968.34;6246159;22;20011;-62
2022/03/22 01:17:54;;;;;;;32.42;20.30;;;;;;;11.87;58.07;102968.13;6245872;22;20010;-62
2022/03/22 01:20:25;;;;;;;32.42;19.73;;;;;;;11.83;58.44;102965.31;6246143;22;20000;-62
2022/03/22 01:22:51;;;;;;;33.72;20.63;;;;;;;11.70;58.69;102967.44;6246353;22;20007;-62
2022/03/22 01:25:20;;;;;;;36.30;20.83;;;;;;;11.72;58.56;102972.78;6246207;22;20334;-62
2022/03/22 01:27:47;;;;;;;31.75;20.20;;;;;;;11.59;58.75;102971.38;6245690;22;20012;-62
2022/03/22 01:30:15;;;;;;;29.58;19.48;;;;;;;11.63;59.04;102972.41;6245852;22;20008;-63
2022/03/22 01:32:41;;;;;;;30.38;20.15;;;;;;;11.54;59.68;102968.53;6244152;23;20005;-62
2022/03/22 01:35:09;;;;;;;31.55;19.80;;;;;;;11.53;59.16;102972.03;6245977;22;20027;-62
2022/03/22 01:37:35;;;;;;;32.00;19.92;;;;;;;11.61;59.48;102968.81;6245906;22;20000;-63
2022/03/22 01:40:01;;;;;;;31.23;19.63;;;;;;;11.65;59.10;102961.03;6245951;22;20004;-63
2022/03/22 01:42:27;;;;;;;35.03;20.00;;;;;;;11.70;58.76;102967.44;6245835;22;20325;-62
2022/03/22 01:44:53;;;;;;;32.90;19.15;;;;;;;11.74;58.88;102966.72;6245819;22;20011;-63
2022/03/22 01:47:25;;;;;;;33.22;20.42;;;;;;;11.71;58.93;102969.22;6245705;22;20000;-62
2022/03/22 01:49:52;;;;;;;31.40;19.52;;;;;;;11.66;58.69;102968.16;6245957;22;20005;-62
2022/03/22 01:52:21;;;;;;;30.83;19.40;;;;;;;11.64;58.79;102972.47;6245719;22;20011;-62
2022/03/22 01:54:49;;;;;;;30.67;19.05;;;;;;;11.49;58.91;102969.22;6244350;23;20382;-62
2022/03/22 01:57:18;;;;;;;32.05;20.08;;;;;;;11.39;59.31;102975.88;6245922;22;20083;-63
2022/03/22 01:59:47;;;;;;;26.38;18.27;;;;;;;11.45;58.69;102965.53;6245752;22;20032;-62
2022/03/22 02:07:45;;;;;;;30.63;16.48;;;;;;;11.36;59.19;102958.97;6245809;23;20019;-63
2022/03/22 02:10:11;;;;;;;28.73;16.83;;;;;;;11.38;58.95;102959.91;6247058;22;20026;-62
2022/03/22 02:12:37;;;;;;;29.73;18.77;;;;;;;11.27;59.37;102954.19;6247559;22;20012;-62
2022/03/22 02:15:03;;;;;;;25.27;17.30;;;;;;;11.31;59.21;102958.75;6247838;22;20079;-62
2022/03/22 02:17:28;;;;;;;33.83;18.83;;;;;;;11.22;59.52;102951.34;6246403;23;20318;-62
2022/03/22 02:19:55;;;;;;;26.70;17.38;;;;;;;11.26;59.13;102945.34;6247785;22;20066;-62
2022/03/22 02:22:36;;;;;;;26.00;17.83;;;;;;;11.16;59.20;102948.44;6250277;22;20010;-62
2022/03/22 02:25:03;;;;;;;30.93;18.07;;;;;;;11.14;59.00;102952.75;6248289;22;20065;-63
2022/03/22 02:27:34;;;;;;;27.13;17.13;;;;;;;11.23;59.33;102957.53;6246633;22;20344;-62
2022/03/22 02:30:00;;;;;;;38.90;19.00;;;;;;;11.29;58.87;102957.78;6246470;23;20008;-62
2022/03/22 02:32:26;;;;;;;29.73;17.55;;;;;;;11.35;58.76;102957.13;6247630;22;20066;-62
2022/03/22 02:34:52;;;;;;;32.72;17.45;;;;;;;11.37;58.00;102952.81;6247824;22;20004;-62
2022/03/22 02:37:17;;;;;;;27.73;17.25;;;;;;;11.38;58.15;102955.50;6247577;22;20418;-62
2022/03/22 02:39:44;;;;;;;30.20;17.92;;;;;;;11.36;58.37;102951.00;6247425;22;20326;-62
2022/03/22 02:42:10;;;;;;;29.45;17.40;;;;;;;11.33;57.99;102954.44;6247585;22;20072;-63
2022/03/22 02:44:36;;;;;;;27.45;17.58;;;;;;;11.26;58.63;102949.69;6247555;22;20008;-62
2022/03/22 02:47:01;;;;;;;29.10;17.05;;;;;;;11.27;58.27;102949.78;6247542;22;20325;-62
2022/03/22 02:49:30;;;;;;;26.45;16.70;;;;;;;11.25;57.88;102947.91;6247472;22;20011;-63
2022/03/22 02:51:55;;;;;;;29.10;17.02;;;;;;;11.25;58.20;102948.81;6247395;22;20050;-62
2022/03/22 02:54:20;;;;;;;30.77;16.83;;;;;;;11.31;58.59;102955.22;6245574;23;20020;-61
2022/03/22 02:56:47;;;;;;;25.20;17.38;;;;;;;11.33;58.45;102961.47;6246736;22;20036;-62
2022/03/22 02:59:16;;;;;;;24.80;16.80;;;;;;;11.31;58.26;102953.47;6247342;22;20007;-62
2022/03/22 03:01:41;;;;;;;27.80;16.92;;;;;;;11.32;57.95;102955.28;6247699;22;20010;-62
2022/03/22 03:04:07;;;;;;;25.58;16.25;;;;;;;11.30;58.19;102956.94;6247480;22;20376;-62
2022/03/22 03:06:35;;;;;;;29.15;16.50;;;;;;;11.28;58.28;102959.53;6247652;22;20008;-63
2022/03/22 03:09:01;;;;;;;27.85;16.30;;;;;;;11.27;57.62;102957.72;6247056;22;20394;-63
2022/03/22 03:11:27;;;;;;;31.77;16.67;;;;;;;11.20;58.08;102960.94;6247540;22;20011;-62
2022/03/22 03:16:39;;;;;;;29.02;16.50;;;;;;;11.16;58.10;102952.81;6247135;23;20088;-63
2022/03/22 03:19:06;;;;;;;22.95;15.90;;;;;;;11.08;58.14;102965.72;6247262;22;20000;-62
2022/03/22 03:21:32;;;;;;;24.15;16.73;;;;;;;11.07;58.21;102961.28;6246792;22;20027;-63
2022/03/22 03:23:58;;;;;;;24.80;16.95;;;;;;;10.96;58.66;102962.53;6247180;22;20152;-63
2022/03/22 03:26:23;;;;;;;29.15;17.08;;;;;;;10.85;59.09;102958.53;6247040;22;20386;-63
2022/03/22 03:28:49;;;;;;;29.60;16.65;;;;;;;10.70;59.04;102961.41;6246956;22;20014;-63
2022/03/22 03:31:15;;;;;;;26.77;16.65;;;;;;;10.60;58.48;102956.56;6245371;23;20430;-64
2022/03/22 03:33:41;;;;;;;25.52;15.98;;;;;;;10.58;59.88;102964.44;6246870;22;20004;-63
2022/03/22 03:36:06;;;;;;;26.88;16.70;;;;;;;10.51;59.62;102971.16;6247023;22;20004;-63
2022/03/22 03:38:32;;;;;;;27.25;16.17;;;;;;;10.43;59.91;102962.00;6246947;22;20007;-63
2022/03/22 03:43:52;;;;;;;25.70;16.13;;;;;;;10.40;60.38;102968.88;6247072;23;20019;-63
2022/03/22 03:49:01;;;;;;;25.88;15.80;;;;;;;10.43;59.88;102977.84;6246805;23;20503;-63
2022/03/22 03:51:27;;;;;;;30.25;17.08;;;;;;;10.32;60.63;102980.81;6246926;22;20028;-63
2022/03/22 03:53:52;;;;;;;28.83;16.08;;;;;;;10.30;60.31;102983.41;6246879;22;20004;-63
2022/03/22 03:56:18;;;;;;;26.58;15.80;;;;;;;10.24;60.66;102978.75;6246983;22;20058;-63
2022/03/22 03:58:43;;;;;;;29.65;15.55;;;;;;;10.16;61.25;102982.75;6246921;22;20330;-63
2022/03/22 04:01:10;;;;;;;28.48;16.67;;;;;;;10.10;61.17;102986.81;6246963;22;20011;-62
2022/03/22 04:03:35;;;;;;;23.95;14.88;;;;;;;10.03;61.48;102993.56;6246814;22;20019;-63
2022/03/22 04:06:01;;;;;;;28.05;15.45;;;;;;;9.90;61.48;102994.72;6247050;22;20000;-62
2022/03/22 04:08:26;;;;;;;28.52;16.17;;;;;;;9.95;61.53;102995.84;6246797;22;20004;-63
2022/03/22 04:10:53;;;;;;;26.95;16.17;;;;;;;9.88;61.97;102998.09;6246640;22;20011;-63
2022/03/22 04:13:18;;;;;;;23.13;15.10;;;;;;;9.84;61.83;102997.03;6246650;22;20028;-63
2022/03/22 04:15:44;;;;;;;29.13;16.27;;;;;;;9.79;61.97;103007.38;6246614;22;20007;-63
2022/03/22 04:18:15;;;;;;;25.15;15.75;;;;;;;9.82;62.08;102996.09;6244952;23;20011;-63
2022/03/22 04:20:41;;;;;;;27.25;15.65;;;;;;;9.83;61.59;102991.69;6246499;22;20011;-63
2022/03/22 04:23:06;;;;;;;24.27;16.00;;;;;;;9.89;61.85;103002.53;6246542;23;20004;-62
2022/03/22 04:25:32;;;;;;;24.92;15.40;;;;;;;9.89;62.18;102997.25;6246565;22;20004;-63
2022/03/22 04:33:42;;;;;;;31.38;16.45;;;;;;;9.76;62.06;102994.06;6123707;23;20024;-62
2022/03/22 04:36:07;;;;;;;28.55;16.58;;;;;;;9.69;62.13;102994.59;6124235;23;20081;-62
2022/03/22 04:38:34;;;;;;;24.02;15.52;;;;;;;9.63;62.56;102991.63;6124270;23;20068;-63
2022/03/22 04:41:00;;;;;;;26.73;15.85;;;;;;;9.60;62.66;102995.88;6124263;23;20017;-63
2022/03/22 04:43:26;;;;;;;25.20;15.38;;;;;;;9.65;61.96;102994.34;6124107;23;20117;-63
2022/03/22 04:45:51;;;;;;;26.98;16.00;;;;;;;9.71;62.40;102995.53;6124277;23;20436;-63
2022/03/22 04:48:17;;;;;;;25.88;16.42;;;;;;;9.76;61.67;103006.31;6124147;23;20018;-62
2022/03/22 04:50:43;;;;;;;27.13;16.00;;;;;;;9.75;61.45;103005.44;6099670;23;20010;-62
2022/03/22 04:58:37;;;;;;;24.67;15.25;;;;;;;9.46;61.73;102998.75;6124176;23;20033;-63
2022/03/22 05:01:03;;;;;;;28.75;17.25;;;;;;;9.41;63.10;103008.13;6124096;23;20399;-63
2022/03/22 05:03:30;;;;;;;28.50;15.52;;;;;;;9.37;62.55;103016.72;6124045;23;20045;-62
2022/03/22 05:08:41;;;;;;;24.83;15.65;;;;;;;9.37;63.29;103019.34;6246112;23;20150;-63
2022/03/22 05:11:07;;;;;;;26.30;16.02;;;;;;;9.37;63.20;103003.53;6246034;22;20043;-63
2022/03/22 05:13:32;;;;;;;24.73;15.00;;;;;;;9.54;62.12;103020.22;6245965;22;20004;-63
2022/03/22 05:15:58;;;;;;;27.13;16.05;;;;;;;9.47;62.89;103021.66;6246020;22;20000;-63
2022/03/22 05:18:34;;;;;;;26.15;15.38;;;;;;;9.42;62.57;103027.50;6246092;22;20007;-63
2022/03/22 05:21:04;;;;;;;29.67;16.58;;;;;;;9.36;63.00;103024.56;6246109;22;20066;-62
2022/03/22 05:23:37;;;;;;;30.52;16.38;;;;;;;9.32;63.40;103033.16;6246225;22;20044;-62
2022/03/22 05:26:06;;;;;;;32.72;16.52;;;;;;;9.24;63.74;103031.03;6246013;22;20444;-63
2022/03/22 05:28:32;;;;;;;26.30;16.75;;;;;;;9.21;63.38;103032.63;6243898;23;20020;-62
2022/03/22 05:30:59;;;;;;;29.50;16.63;;;;;;;9.20;63.83;103030.78;6244265;23;20337;-63
2022/03/22 05:33:25;;;;;;;27.20;16.13;;;;;;;9.22;63.28;103030.06;6245683;22;20000;-63
2022/03/22 05:35:51;;;;;;;27.73;16.00;;;;;;;9.22;63.59;103039.72;6245268;22;20030;-63
2022/03/22 05:38:16;;;;;;;23.30;15.68;;;;;;;9.24;62.88;103036.31;6245016;22;20004;-63
2022/03/22 05:40:42;;;;;;;35.47;16.13;;;;;;;9.25;63.44;103039.88;6245144;22;20079;-63
2022/03/22 05:43:07;;;;;;;25.45;16.35;;;;;;;9.28;63.38;103054.09;6245023;22;20454;-62
2022/03/22 05:45:34;;;;;;;25.52;15.52;;;;;;;9.31;62.88;103036.63;6244855;22;20079;-62
2022/03/22 05:48:00;;;;;;;27.90;15.93;;;;;;;9.39;62.67;103044.09;6245079;22;20007;-63
2022/03/22 05:50:29;;;;;;;26.85;15.68;;;;;;;9.44;62.68;103039.97;6242929;23;20366;-63
2022/03/22 05:52:55;;;;;;;26.77;16.38;;;;;;;9.51;62.34;103042.09;6244612;22;20007;-62
2022/03/22 05:55:20;;;;;;;25.00;16.08;;;;;;;9.57;62.22;103041.50;6245111;22;20004;-62
2022/03/22 05:57:47;;;;;;;23.88;15.68;;;;;;;9.55;61.78;103037.88;6244963;22;20004;-62
2022/03/22 06:00:14;;;;;;;29.13;15.95;;;;;;;9.47;61.95;103042.75;6245269;22;20004;-62
2022/03/22 06:02:45;;;;;;;27.20;15.82;;;;;;;9.42;61.87;103041.63;6244842;22;20329;-63
2022/03/22 06:05:11;;;;;;;29.05;16.88;;;;;;;9.50;61.94;103049.91;6244829;22;20004;-63
2022/03/22 06:07:41;;;;;;;30.75;18.13;;;;;;;9.44;61.66;103045.25;6244906;22;20038;-62
2022/03/22 06:10:08;;;;;;;26.95;16.63;;;;;;;9.47;62.50;103057.69;6244828;22;20012;-63
2022/03/22 06:12:40;;;;;;;25.25;15.68;;;;;;;9.53;62.20;103050.06;6244848;22;20083;-62
2022/03/22 06:15:32;;;;;;;30.45;16.83;;;;;;;9.70;61.65;103056.19;6244868;22;20004;-63
2022/03/22 06:17:59;;;;;;;23.15;15.10;;;;;;;9.79;61.50;103057.56;6240461;22;20087;-63
2022/03/22 06:20:27;;;;;;;27.17;15.73;;;;;;;9.88;61.07;103050.91;6244931;22;20000;-62
2022/03/22 06:22:54;;;;;;;25.67;16.52;;;;;;;9.87;61.09;103057.03;6245009;22;20004;-62
2022/03/22 06:25:20;;;;;;;30.77;16.33;;;;;;;9.88;61.01;103056.19;6244900;22;20070;-62
2022/03/22 06:27:48;;;;;;;32.00;17.13;;;;;;;9.91;61.02;103064.28;6242940;23;20375;-62
2022/03/22 06:30:15;;;;;;;30.30;16.88;;;;;;;10.03;61.53;103064.88;6243207;23;20095;-63
2022/03/22 06:32:56;;;;;;;29.98;17.50;;;;;;;10.16;60.71;103059.34;6242759;23;20008;-64
2022/03/22 06:35:31;;;;;;;26.70;16.67;;;;;;;10.21;60.18;103064.84;6244950;23;20004;-63
2022/03/22 06:37:57;;;;;;;28.73;17.27;;;;;;;10.31;60.20;103053.00;6244901;22;20480;-63
2022/03/22 06:40:27;;;;;;;25.48;16.35;;;;;;;10.43;60.59;103061.53;6244871;22;20015;-63
2022/03/22 06:42:53;;;;;;;26.10;16.38;;;;;;;10.55;59.78;103063.84;6245019;22;20004;-62
2022/03/22 06:45:19;;;;;;;29.23;16.30;;;;;;;10.63;59.02;103058.06;6244607;22;20381;-63
2022/03/22 06:47:52;;;;;;;24.90;15.98;;;;;;;10.76;59.19;103063.09;6244711;22;20019;-63
2022/03/22 06:50:19;;;;;;;29.83;17.30;;;;;;;10.85;58.35;103069.63;6243083;23;20377;-63
2022/03/22 06:52:45;;;;;;;27.35;16.60;;;;;;;10.83;58.11;103068.63;6244947;22;20004;-63
2022/03/22 06:55:13;;;;;;;30.08;17.65;;;;;;;10.88;57.92;103078.63;6244976;22;20015;-63
2022/03/22 06:57:39;;;;;;;28.23;16.50;;;;;;;10.83;58.52;103073.94;6246225;22;20000;-63
2022/03/22 07:00:15;;;;;;;30.50;17.55;;;;;;;10.92;59.13;103075.28;6246610;22;20024;-63
2022/03/22 07:02:40;;;;;;;29.63;16.83;;;;;;;11.00;58.35;103079.13;6246070;23;20008;-63
2022/03/22 07:05:08;;;;;;;30.40;17.50;;;;;;;11.01;57.68;103075.69;6246273;23;20081;-63
2022/03/22 07:07:33;;;;;;;31.40;18.10;;;;;;;11.17;57.73;103071.94;6246386;22;20011;-63
2022/03/22 07:09:59;;;;;;;27.83;17.92;;;;;;;11.16;58.03;103083.38;6246231;22;20004;-64
2022/03/22 07:12:25;;;;;;;30.83;17.75;;;;;;;11.32;57.90;103070.84;6246308;22;20000;-63
2022/03/22 07:14:50;;;;;;;28.10;17.63;;;;;;;11.45;57.75;103083.75;6245994;22;20000;-63
2022/03/22 07:17:16;;;;;;;29.15;17.65;;;;;;;11.55;56.71;103080.66;6246288;22;20004;-63
2022/03/22 07:19:42;;;;;;;31.60;18.17;;;;;;;11.77;57.19;103080.72;6246362;22;20004;-62
2022/03/22 07:22:07;;;;;;;25.45;17.13;;;;;;;11.98;57.58;103070.13;6246281;22;20349;-64
2022/03/22 07:24:34;;;;;;;30.95;17.52;;;;;;;12.05;55.57;103081.00;6246216;22;20006;-63
2022/03/22 07:26:59;;;;;;;26.38;17.33;;;;;;;12.10;56.01;103076.78;6246290;22;20075;-63
2022/03/22 07:29:25;;;;;;;31.25;18.30;;;;;;;12.23;55.03;103085.28;6246015;23;20050;-63
2022/03/22 07:31:51;;;;;;;26.58;17.92;;;;;;;12.24;54.77;103087.06;6246108;22;20015;-63
2022/03/22 07:34:19;;;;;;;32.60;18.40;;;;;;;12.36;56.09;103088.41;6246093;22;20460;-62
2022/03/22 07:36:47;;;;;;;43.92;19.33;;;;;;;12.62;55.01;103086.78;6244398;23;20004;-63
2022/03/22 07:39:13;;;;;;;27.25;18.25;;;;;;;12.80;54.46;103084.81;6246624;22;20000;-63
2022/03/22 07:41:43;;;;;;;28.02;18.50;;;;;;;13.04;53.71;103087.47;6246779;22;20004;-63
2022/03/22 07:44:12;;;;;;;28.35;17.50;;;;;;;13.20;53.40;103099.56;6245173;23;20015;-63
2022/03/22 07:46:37;;;;;;;27.25;18.52;;;;;;;13.49;53.31;103082.94;6246100;22;20011;-63
2022/03/22 07:54:35;;;;;;;27.65;18.25;;;;;;;14.27;49.94;103088.16;6245596;23;20078;-63
2022/03/22 07:57:02;;;;;;;30.77;19.30;;;;;;;14.42;49.08;103086.81;6244162;23;20078;-63
2022/03/22 07:59:27;;;;;;;30.63;19.05;;;;;;;14.43;48.26;103088.63;6245999;22;20015;-63
2022/03/22 08:01:53;;;;;;;30.25;19.30;;;;;;;14.48;48.26;103095.00;6245990;22;20004;-63
2022/03/22 08:04:19;;;;;;;29.25;19.10;;;;;;;14.60;47.95;103086.50;6245889;22;20338;-63
2022/03/22 08:06:45;;;;;;;28.67;19.20;;;;;;;14.72;47.29;103092.22;6244091;23;20083;-63
2022/03/22 08:09:11;;;;;;;30.33;18.23;;;;;;;14.96;47.43;103089.38;6244078;23;20385;-63
2022/03/22 08:11:39;;;;;;;31.13;19.70;;;;;;;15.18;46.49;103086.44;6245899;22;20032;-63
2022/03/22 08:14:05;;;;;;;30.75;19.38;;;;;;;15.35;46.75;103096.66;6246099;22;20004;-64
2022/03/22 08:16:31;;;;;;;53.13;42.00;;;;;;;15.46;46.12;103092.50;6246078;22;20067;-64
2022/03/22 08:18:56;;;;;;;30.60;19.65;;;;;;;15.60;45.70;103093.78;6246228;22;20028;-64
2022/03/22 08:21:22;;;;;;;35.75;23.90;;;;;;;15.83;45.28;103085.50;6246014;22;20007;-64
2022/03/22 08:23:47;;;;;;;33.42;19.98;;;;;;;15.93;45.13;103088.44;6246109;22;20059;-64
2022/03/22 08:26:17;;;;;;;51.42;38.88;;;;;;;16.23;43.88;103090.94;6245559;22;20031;-62
2022/03/22 08:28:45;;;;;;;34.90;20.75;;;;;;;16.41;43.32;103100.25;6245429;22;20080;-61
2022/03/22 08:31:13;;;;;;;30.98;20.10;;;;;;;16.36;43.27;103099.22;6245533;22;20060;-61
2022/03/22 08:33:39;;;;;;;29.65;20.35;;;;;;;16.48;43.26;103095.03;6245834;22;20011;-62
2022/03/22 08:36:05;;;;;;;32.10;23.08;;;;;;;16.68;42.98;103097.28;6245705;22;20004;-63
2022/03/22 08:38:31;;;;;;;34.35;23.10;;;;;;;16.82;42.19;103095.81;6245615;22;20011;-61
2022/03/22 08:41:01;;;;;;;32.97;21.83;;;;;;;16.90;42.70;103094.22;6245274;22;20043;-62
2022/03/22 08:43:27;;;;;;;28.92;19.17;;;;;;;16.87;42.15;103096.81;6245426;22;20410;-62
2022/03/22 08:45:56;;;;;;;32.28;20.58;;;;;;;16.82;42.19;103089.56;6244826;22;20031;-62
2022/03/22 08:48:23;;;;;;;31.75;19.95;;;;;;;16.76;41.57;103099.25;6245281;22;20008;-61
2022/03/22 08:50:50;;;;;;;32.35;21.88;;;;;;;16.77;41.80;103097.50;6245715;22;20027;-61
2022/03/22 08:53:17;;;;;;;35.97;23.55;;;;;;;16.91;41.13;103090.66;6245285;22;20004;-63
2022/03/22 08:55:46;;;;;;;29.17;19.50;;;;;;;16.92;41.40;103102.28;6245650;22;20134;-62
2022/03/22 08:58:13;;;;;;;32.60;19.73;;;;;;;16.95;41.12;103092.53;6245353;22;20081;-61
2022/03/22 09:00:39;;;;;;;31.83;19.95;;;;;;;17.21;41.68;103095.72;6245507;22;20015;-62
2022/03/22 09:03:06;;;;;;;29.60;19.27;;;;;;;17.42;40.94;103097.00;6245390;23;20008;-62
2022/03/22 09:08:16;;;;;;;29.52;19.52;;;;;;;17.46;40.04;103097.06;6245331;23;20396;-62
2022/03/22 09:10:46;;;;;;;32.60;19.65;;;;;;;17.54;39.98;103099.91;6245316;22;20075;-62
2022/03/22 09:13:12;;;;;;;29.80;19.38;;;;;;;17.74;38.35;103093.16;6245546;22;20008;-62
2022/03/22 09:15:39;;;;;;;32.33;19.85;;;;;;;17.89;39.19;103088.94;6245427;22;20031;-62
2022/03/22 09:18:14;;;;;;;33.35;22.73;;;;;;;18.10;39.25;103096.41;6245305;22;20000;-62
2022/03/22 09:20:40;;;;;;;30.95;18.40;;;;;;;18.16;37.59;103086.72;6243251;23;20047;-62
2022/03/22 09:23:08;;;;;;;38.45;20.23;;;;;;;18.31;37.58;103085.13;6245313;22;20031;-62
2022/03/22 09:25:34;;;;;;;33.78;18.60;;;;;;;18.61;35.93;103079.28;6245078;22;20011;-62
2022/03/22 09:28:00;;;;;;;29.02;18.80;;;;;;;18.84;35.31;103080.50;6243361;23;20078;-62
2022/03/22 09:30:26;;;;;;;30.98;18.98;;;;;;;19.11;34.91;103079.06;6245635;22;20004;-61
2022/03/22 09:32:52;;;;;;;29.13;19.23;;;;;;;19.28;34.07;103080.13;6245047;22;20001;-62
2022/03/22 09:35:19;;;;;;;29.42;19.83;;;;;;;19.20;34.50;103080.03;6245311;22;20007;-62
2022/03/22 09:37:46;;;;;;;45.97;20.73;;;;;;;19.31;34.33;103081.94;6245168;22;20023;-62
2022/03/22 09:40:14;;;;;;;37.47;20.63;;;;;;;19.48;33.65;103083.88;6245224;22;20000;-62
2022/03/22 09:42:45;;;;;;;28.65;18.80;;;;;;;19.52;34.11;103087.50;6245237;22;20004;-62
2022/03/22 09:45:14;;;;;;;59.00;44.33;;;;;;;19.80;32.62;103079.75;6245189;22;20010;-62
2022/03/22 09:47:41;;;;;;;30.08;19.65;;;;;;;19.78;31.81;103082.41;6245115;22;20004;-62
2022/03/22 09:50:09;;;;;;;27.75;19.08;;;;;;;20.07;31.81;103081.72;6245238;22;20005;-61
2022/03/22 09:52:36;;;;;;;29.17;19.27;;;;;;;20.13;32.01;103087.16;6244829;22;20019;-62
2022/03/22 09:55:04;;;;;;;32.40;19.00;;;;;;;20.28;31.54;103079.19;6245524;22;20027;-62
2022/03/22 09:57:29;;;;;;;27.60;18.90;;;;;;;20.56;30.93;103074.91;6243240;23;20368;-62
2022/03/22 09:59:55;;;;;;;31.15;18.63;;;;;;;20.71;29.55;103076.75;6245118;22;20024;-62
2022/03/22 10:02:35;;;;;;;31.15;18.58;;;;;;;20.84;30.63;103070.53;6245091;22;20077;-62
2022/03/22 10:05:03;;;;;;;27.45;19.40;;;;;;;20.74;30.14;103075.00;6244851;22;20079;-62
2022/03/22 10:07:28;;;;;;;27.95;18.35;;;;;;;20.70;29.53;103073.19;6245343;22;20004;-62
2022/03/22 10:09:59;;;;;;;33.08;20.02;;;;;;;20.84;30.68;103066.97;6245048;23;20050;-62
2022/03/22 10:12:54;;;;;;;28.27;19.50;;;;;;;21.26;30.78;103063.50;6244902;22;20054;-62
2022/03/22 10:15:20;;;;;;;28.90;18.30;;;;;;;21.53;29.39;103061.75;6244875;22;20008;-62
2022/03/22 10:17:46;;;;;;;33.00;19.48;;;;;;;21.62;29.00;103057.25;6244890;23;20011;-63
2022/03/22 10:20:25;;;;;;;27.80;19.10;;;;;;;21.79;28.46;103056.38;6245602;22;20000;-62
2022/03/22 10:22:58;;;;;;;35.00;19.17;;;;;;;21.75;29.18;103058.16;6252138;22;20015;-64
2022/03/22 10:25:25;;;;;;;32.45;19.58;;;;;;;21.86;27.85;103050.97;6247140;22;20004;-64
2022/03/22 10:27:58;;;;;;;28.25;18.88;;;;;;;21.85;28.08;103061.75;6245829;22;20012;-65
2022/03/22 10:30:25;;;;;;;30.42;18.35;;;;;;;22.32;27.39;103058.13;6244618;23;20008;-64
2022/03/22 10:32:53;;;;;;;30.63;21.92;;;;;;;22.73;27.63;103049.84;6247044;22;20005;-64
2022/03/22 10:35:20;;;;;;;32.00;19.75;;;;;;;22.86;27.32;103045.31;6247085;22;20012;-64
2022/03/22 10:37:57;;;;;;;36.47;20.10;;;;;;;22.67;28.22;103052.59;6247143;22;20360;-64
2022/03/22 10:40:24;;;;;;;38.40;24.17;;;;;;;22.65;28.30;103049.88;6247043;22;20008;-64
2022/03/22 10:42:58;;;;;;;32.30;20.52;;;;;;;23.01;27.23;103049.75;6246851;22;20333;-64
2022/03/22 10:45:41;;;;;;;33.95;20.15;;;;;;;23.61;27.28;103044.81;6246858;22;20322;-62
2022/03/22 10:48:06;;;;;;;29.35;19.45;;;;;;;23.90;25.94;103040.09;6246822;22;20008;-62
2022/03/22 10:50:35;;;;;;;33.75;21.10;;;;;;;23.88;26.70;103043.69;6246868;22;20393;-61
2022/03/22 10:53:01;;;;;;;29.85;20.13;;;;;;;24.14;25.96;103032.63;6246438;22;20321;-61
2022/03/22 10:55:27;;;;;;;30.83;19.48;;;;;;;24.17;25.02;103038.91;6246904;22;20168;-64
2022/03/22 10:57:58;;;;;;;34.10;20.33;;;;;;;24.22;24.90;103039.72;6246763;22;20010;-62
2022/03/22 11:00:24;;;;;;;31.13;20.13;;;;;;;24.40;25.04;103035.94;6246823;22;20004;-61
2022/03/22 11:02:55;;;;;;;32.85;19.75;;;;;;;24.21;24.19;103039.75;6246634;22;20378;-63
2022/03/22 11:05:23;;;;;;;28.90;18.48;;;;;;;24.29;25.59;103035.16;6246685;22;20000;-63
2022/03/22 11:07:51;;;;;;;28.77;18.85;;;;;;;24.54;24.19;103035.81;6244765;23;20310;-62
2022/03/22 11:10:19;;;;;;;31.38;18.80;;;;;;;24.42;23.52;103038.66;6246681;22;20058;-62
2022/03/22 11:12:45;;;;;;;33.08;19.10;;;;;;;24.60;24.11;103033.00;6246510;22;20004;-61
2022/03/22 11:15:13;;;;;;;33.33;19.02;;;;;;;24.96;24.78;103028.88;6246676;22;20015;-61
2022/03/22 11:17:41;;;;;;;33.22;19.13;;;;;;;24.98;24.82;103034.28;6246568;22;20437;-61
2022/03/22 11:20:10;;;;;;;31.92;19.58;;;;;;;24.59;23.59;103024.94;6246612;22;20429;-62
2022/03/22 11:22:35;;;;;;;32.90;19.77;;;;;;;24.70;23.66;103039.19;6246268;22;20024;-62
2022/03/22 11:25:13;;;;;;;32.63;19.70;;;;;;;24.49;24.59;103030.41;6246412;22;20027;-61
2022/03/22 11:27:39;;;;;;;28.60;18.52;;;;;;;24.55;23.67;103026.78;6246229;22;20028;-62
2022/03/22 11:30:07;;;;;;;34.55;20.27;;;;;;;24.90;24.30;103020.88;6246395;22;20008;-61
2022/03/22 11:35:24;;;;;;;29.65;19.30;;;;;;;24.85;24.27;103019.16;6246543;23;20452;-61
2022/03/22 11:37:54;;;;;;;;;;;;;;;25.13;25.65;103017.84;6247002;22;20015;-61
2022/03/22 11:43:15;;;;;;;31.20;18.52;;;;;;;25.22;23.13;103019.50;6245501;23;20042;-62
2022/03/22 11:45:49;;;;;;;30.13;18.73;;;;;;;25.08;23.62;103018.81;6246117;22;20000;-61
2022/03/22 11:48:17;;;;;;;29.00;18.90;;;;;;;25.42;22.31;103011.97;6246232;22;20012;-62
2022/03/22 11:50:44;;;;;;;31.55;19.55;;;;;;;25.67;22.52;103008.84;6246154;22;20004;-62
2022/03/22 11:53:18;;;;;;;29.55;20.48;;;;;;;25.91;22.53;103004.78;6246108;22;20010;-61
2022/03/22 11:55:48;;;;;;;36.03;20.77;;;;;;;25.45;22.83;103008.31;6246122;22;20422;-61